Time;durP1;ratioP1;P1;durP2;ratioP2;P2;SDS_P1;SDS_P2;PMS_P1;PMS_P2;Temp;Humidity;BMP_temperature;BMP_pressure;BME280_temperature;BME280_humidity;BME280_pressure;Samples;Min_cycle;Max_cycle;Signal;HPM_P1;HPM_P2
2022/01/28 00:00:09;;;;;;;15.27;11.10;;;4.00;99.90;;;;;;5071276;28;20444;-65
2022/01/28 00:02:53;;;;;;;15.53;9.63;;;4.00;99.90;;;;;;5071809;28;20474;-65
2022/01/28 00:05:22;;;;;;;14.73;10.03;;;4.10;99.90;;;;;;5071441;28;20454;-63
2022/01/28 00:07:51;;;;;;;11.90;9.07;;;4.10;99.90;;;;;;5071553;28;20479;-65
2022/01/28 00:10:18;;;;;;;14.63;9.73;;;4.10;99.90;;;;;;5071360;28;20439;-65
2022/01/28 00:13:10;;;;;;;14.07;9.73;;;4.10;99.90;;;;;;5071361;28;20467;-64
2022/01/28 00:15:43;;;;;;;14.43;9.60;;;4.10;99.90;;;;;;5071377;28;20507;-66
2022/01/28 00:37:58;;;;;;;12.40;8.60;;;4.20;99.90;;;;;;5071066;28;20457;-64
2022/01/28 00:40:16;;;;;;;13.67;8.90;;;4.30;99.90;;;;;;5070963;28;20448;-65
2022/01/28 00:42:43;;;;;;;10.87;8.60;;;4.30;99.90;;;;;;5071348;28;20459;-66
2022/01/28 00:45:10;;;;;;;11.40;9.33;;;4.30;99.90;;;;;;5071310;28;20447;-65
2022/01/28 00:47:37;;;;;;;11.00;7.73;;;4.30;99.90;;;;;;5071009;28;20444;-65
2022/01/28 00:50:04;;;;;;;17.57;9.77;;;4.30;99.90;;;;;;5070788;28;20439;-65
2022/01/28 00:52:31;;;;;;;12.60;8.10;;;4.30;99.90;;;;;;5071010;28;20468;-64
2022/01/28 00:54:58;;;;;;;12.50;8.83;;;4.30;99.90;;;;;;5070475;28;20840;-64
2022/01/28 00:57:26;;;;;;;14.00;8.60;;;4.30;99.90;;;;;;5070478;28;20976;-65
2022/01/28 00:59:53;;;;;;;12.90;8.50;;;4.30;99.90;;;;;;5070174;28;20488;-65
2022/01/28 01:02:20;;;;;;;13.00;9.20;;;4.30;99.90;;;;;;5070393;28;20487;-66
2022/01/28 01:04:47;;;;;;;10.43;7.37;;;4.30;99.90;;;;;;5070050;28;20442;-65
2022/01/28 01:07:14;;;;;;;10.03;8.23;;;4.30;99.90;;;;;;5069539;28;20439;-65
2022/01/28 01:09:41;;;;;;;10.13;6.90;;;4.40;99.90;;;;;;5069893;28;20451;-64
2022/01/28 01:12:10;;;;;;;14.70;8.47;;;4.40;99.90;;;;;;5069997;28;20464;-64
2022/01/28 01:14:39;;;;;;;11.60;7.50;;;4.40;99.90;;;;;;5069741;28;20481;-63
2022/01/28 01:17:19;;;;;;;10.87;7.60;;;4.40;99.90;;;;;;5070076;28;20432;-65
2022/01/28 01:19:49;;;;;;;10.67;7.33;;;4.40;99.90;;;;;;5069644;28;20450;-64
2022/01/28 01:22:18;;;;;;;10.47;7.53;;;4.40;99.90;;;;;;5070198;28;20491;-65
2022/01/28 01:24:50;;;;;;;13.73;8.20;;;4.30;99.90;;;;;;5070124;28;20444;-64
2022/01/28 01:27:19;;;;;;;11.53;8.27;;;4.30;99.90;;;;;;5070241;28;20436;-65
2022/01/28 01:29:48;;;;;;;12.13;8.53;;;4.20;99.90;;;;;;5069696;28;20436;-63
2022/01/28 01:32:17;;;;;;;10.73;7.97;;;4.20;99.90;;;;;;5070228;28;20510;-66
2022/01/28 01:34:44;;;;;;;11.13;8.20;;;4.20;99.90;;;;;;5069793;28;20471;-63
2022/01/28 01:37:12;;;;;;;11.53;8.70;;;4.10;99.90;;;;;;5069727;28;20952;-65
2022/01/28 01:39:41;;;;;;;11.07;8.37;;;4.10;99.90;;;;;;5069380;28;20933;-64
2022/01/28 01:42:17;;;;;;;10.20;7.20;;;4.00;99.90;;;;;;5069334;28;20468;-64
2022/01/28 01:53:00;;;;;;;16.00;10.93;;;3.70;99.90;;;;;;5069313;28;21014;-65
2022/01/28 01:55:27;;;;;;;10.80;8.90;;;3.60;99.90;;;;;;5069200;28;20478;-66
2022/01/28 01:57:54;;;;;;;14.07;9.23;;;3.50;99.90;;;;;;5069324;28;20518;-65
2022/01/28 02:00:21;;;;;;;14.30;9.20;;;3.40;99.90;;;;;;5068852;28;20451;-64
2022/01/28 02:02:49;;;;;;;11.80;8.90;;;3.30;99.90;;;;;;5069154;28;20833;-65
2022/01/28 02:05:16;;;;;;;13.47;8.60;;;3.30;99.90;;;;;;5069029;28;20454;-65
2022/01/28 02:07:46;;;;;;;14.57;9.90;;;3.20;99.90;;;;;;5068937;28;20467;-64
2022/01/28 02:10:13;;;;;;;11.53;8.50;;;3.20;99.90;;;;;;5068790;28;20470;-63
2022/01/28 02:12:48;;;;;;;11.63;8.57;;;3.20;99.90;;;;;;5068845;28;20554;-67
2022/01/28 02:15:15;;;;;;;13.97;9.17;;;3.20;99.90;;;;;;5068759;28;20999;-66
2022/01/28 02:17:42;;;;;;;13.17;9.20;;;3.20;99.90;;;;;;5068413;28;20439;-66
2022/01/28 02:20:17;;;;;;;15.80;9.40;;;3.20;99.90;;;;;;5068628;28;20952;-65
2022/01/28 02:22:45;;;;;;;15.13;9.77;;;3.10;99.90;;;;;;5068656;28;20490;-67
2022/01/28 02:25:21;;;;;;;14.70;10.03;;;3.10;99.90;;;;;;5069022;28;20552;-64
2022/01/28 02:27:48;;;;;;;13.90;9.70;;;3.10;99.90;;;;;;5068794;28;20443;-65
2022/01/28 02:30:15;;;;;;;15.73;10.07;;;3.10;99.90;;;;;;5068355;28;20550;-64
2022/01/28 02:32:44;;;;;;;14.97;9.50;;;3.10;99.90;;;;;;5068551;28;20467;-65
2022/01/28 02:35:11;;;;;;;16.60;10.23;;;3.10;99.90;;;;;;5068734;28;20487;-65
2022/01/28 02:37:39;;;;;;;12.33;8.10;;;3.10;99.90;;;;;;5068801;28;20440;-65
2022/01/28 02:40:07;;;;;;;12.33;9.37;;;3.10;99.90;;;;;;5068428;28;21048;-66
2022/01/28 02:42:47;;;;;;;14.40;9.27;;;3.00;99.90;;;;;;5068383;28;20547;-65
2022/01/28 02:45:24;;;;;;;12.40;8.40;;;3.00;99.90;;;;;;5068870;28;20832;-65
2022/01/28 02:47:56;;;;;;;11.40;8.50;;;3.00;99.90;;;;;;5068628;28;20497;-66
2022/01/28 02:50:24;;;;;;;13.93;9.97;;;3.10;99.90;;;;;;5068565;28;20443;-65
2022/01/28 02:53:03;;;;;;;12.40;9.00;;;3.10;99.90;;;;;;5068517;28;20499;-65
2022/01/28 02:55:35;;;;;;;13.37;10.13;;;3.10;99.90;;;;;;5068723;28;20486;-65
2022/01/28 02:58:16;;;;;;;12.07;8.63;;;3.10;99.90;;;;;;5068158;28;20451;-64
2022/01/28 03:00:42;;;;;;;13.77;8.87;;;3.10;99.90;;;;;;5068127;28;21047;-64
2022/01/28 03:03:10;;;;;;;11.47;8.80;;;3.20;99.90;;;;;;5068295;28;20464;-64
2022/01/28 03:05:37;;;;;;;13.17;7.57;;;3.20;99.90;;;;;;5068311;28;20965;-64
2022/01/28 03:08:06;;;;;;;11.87;9.00;;;3.20;99.90;;;;;;5068743;28;20435;-65
2022/01/28 03:10:45;;;;;;;13.03;8.33;;;3.20;99.90;;;;;;5068169;28;20518;-64
2022/01/28 03:16:11;;;;;;;12.90;9.10;;;3.30;99.90;;;;;;5068056;28;20504;-64
2022/01/28 03:21:39;;;;;;;14.03;9.30;;;3.30;99.90;;;;;;5067745;28;20435;-67
2022/01/28 03:24:08;;;;;;;12.73;8.10;;;3.50;99.90;;;;;;5068466;28;20446;-65
2022/01/28 03:26:35;;;;;;;11.13;8.50;;;3.50;99.90;;;;;;5068099;28;20996;-65
2022/01/28 03:29:02;;;;;;;12.53;8.40;;;3.50;99.90;;;;;;5068235;28;20432;-65
2022/01/28 03:31:29;;;;;;;13.57;8.20;;;3.50;99.90;;;;;;5070953;28;20800;-65
2022/01/28 03:33:56;;;;;;;12.30;8.67;;;3.50;99.90;;;;;;5071910;28;20546;-64
2022/01/28 03:36:23;;;;;;;14.57;8.60;;;3.50;99.90;;;;;;5071708;28;20484;-64
2022/01/28 03:38:50;;;;;;;14.40;8.30;;;3.60;99.90;;;;;;5071589;28;20501;-64
2022/01/28 03:41:18;;;;;;;12.80;9.00;;;3.60;99.90;;;;;;5071413;28;20508;-63
2022/01/28 03:43:45;;;;;;;11.40;7.73;;;3.60;99.90;;;;;;5072084;28;20977;-64
2022/01/28 03:46:12;;;;;;;12.33;8.53;;;3.70;99.90;;;;;;5072154;28;20876;-66
2022/01/28 03:48:40;;;;;;;12.90;8.90;;;3.70;99.90;;;;;;5071962;28;20435;-65
2022/01/28 03:51:07;;;;;;;12.87;8.30;;;3.70;99.90;;;;;;5071195;28;20806;-65
2022/01/28 03:53:34;;;;;;;11.87;9.13;;;3.80;99.90;;;;;;5071398;28;21027;-65
2022/01/28 03:56:01;;;;;;;14.90;7.83;;;3.90;99.90;;;;;;5071589;28;20566;-65
2022/01/28 03:58:29;;;;;;;10.50;7.97;;;3.90;99.90;;;;;;5071580;28;20442;-63
2022/01/28 04:00:57;;;;;;;12.10;8.27;;;4.00;99.90;;;;;;5071327;28;20439;-65
2022/01/28 04:11:44;;;;;;;10.47;7.13;;;4.10;99.90;;;;;;5071592;28;20472;-65
2022/01/28 04:14:17;;;;;;;13.03;7.93;;;4.10;99.90;;;;;;5071535;28;20451;-66
2022/01/28 04:19:28;;;;;;;12.20;8.77;;;4.10;99.90;;;;;;5071251;28;20415;-64
2022/01/28 04:21:55;;;;;;;9.33;6.90;;;4.00;99.90;;;;;;5071439;28;20445;-63
2022/01/28 04:24:22;;;;;;;12.00;7.80;;;4.00;99.90;;;;;;5070900;28;20452;-65
2022/01/28 04:26:49;;;;;;;13.70;7.77;;;3.90;99.90;;;;;;5070896;28;20510;-67
2022/01/28 04:29:17;;;;;;;13.13;8.30;;;3.90;99.90;;;;;;5070534;28;20442;-64
2022/01/28 04:31:46;;;;;;;13.50;7.73;;;3.80;99.90;;;;;;5070753;28;20442;-65
2022/01/28 04:34:13;;;;;;;13.40;8.37;;;3.80;99.90;;;;;;5070764;28;20513;-66
2022/01/28 04:36:48;;;;;;;12.60;8.27;;;3.80;99.90;;;;;;5070652;28;20483;-65
2022/01/28 04:39:21;;;;;;;10.60;7.50;;;3.80;99.90;;;;;;5070187;28;20496;-65
2022/01/28 04:41:58;;;;;;;12.57;7.67;;;3.80;99.90;;;;;;5070853;28;20440;-64
2022/01/28 04:44:34;;;;;;;11.23;8.80;;;3.70;99.90;;;;;;5070962;28;20446;-65
2022/01/28 04:47:06;;;;;;;12.53;8.20;;;3.70;99.90;;;;;;5071031;28;20526;-64
2022/01/28 04:49:46;;;;;;;13.17;9.50;;;3.60;99.90;;;;;;5070199;28;20538;-64
2022/01/28 04:52:39;;;;;;;14.20;8.30;;;3.60;99.90;;;;;;5070987;28;20463;-65
2022/01/28 04:55:14;;;;;;;13.03;8.67;;;3.50;99.90;;;;;;5070202;28;20882;-64
2022/01/28 04:57:54;;;;;;;15.67;9.13;;;3.40;99.90;;;;;;5070374;28;20419;-63
2022/01/28 05:00:31;;;;;;;13.27;9.67;;;3.20;99.90;;;;;;5069759;28;20442;-64
2022/01/28 05:03:22;;;;;;;13.97;9.97;;;3.20;99.90;;;;;;5070828;28;20687;-64
2022/01/28 05:11:45;;;;;;;14.20;9.50;;;3.00;99.90;;;;;;5069110;28;20427;-64
2022/01/28 05:14:34;;;;;;;12.97;8.53;;;3.00;99.90;;;;;;5070210;28;20447;-66
2022/01/28 05:28:14;;;;;;;14.80;9.57;;;3.00;99.90;;;;;;5089772;28;20923;-66
2022/01/28 05:30:41;;;;;;;13.87;9.20;;;3.00;99.90;;;;;;5089928;28;20443;-67
2022/01/28 05:33:09;;;;;;;17.20;10.50;;;3.10;99.90;;;;;;5089586;28;20455;-64
2022/01/28 05:35:36;;;;;;;14.70;9.93;;;3.00;99.90;;;;;;5089818;28;20439;-64
2022/01/28 05:38:02;;;;;;;12.40;8.23;;;3.10;99.90;;;;;;5089520;28;20530;-65
2022/01/28 05:40:29;;;;;;;17.93;10.47;;;3.10;99.90;;;;;;5089329;28;20545;-64
2022/01/28 05:42:56;;;;;;;15.40;10.23;;;3.10;99.90;;;;;;5073562;28;20466;-64
2022/01/28 05:45:23;;;;;;;15.47;9.30;;;3.10;99.90;;;;;;5064192;28;20465;-65
2022/01/28 05:47:50;;;;;;;19.07;11.00;;;3.10;99.90;;;;;;5063127;28;20447;-63
2022/01/28 05:50:18;;;;;;;12.97;9.47;;;3.20;99.90;;;;;;5063688;28;20959;-64
2022/01/28 05:52:45;;;;;;;15.97;10.17;;;3.10;99.90;;;;;;5064224;28;20474;-64
2022/01/28 05:55:12;;;;;;;15.93;9.50;;;3.10;99.90;;;;;;5062474;28;20450;-63
2022/01/28 05:57:38;;;;;;;16.13;9.93;;;3.10;99.90;;;;;;5067205;28;20471;-64
2022/01/28 06:00:07;;;;;;;18.00;11.30;;;3.10;99.90;;;;;;5066027;28;20460;-65
2022/01/28 06:02:33;;;;;;;19.03;10.03;;;3.10;99.90;;;;;;5067137;28;20847;-65
2022/01/28 06:05:00;;;;;;;17.80;10.97;;;3.10;99.90;;;;;;5067089;28;20447;-65
2022/01/28 06:07:28;;;;;;;13.47;9.47;;;3.10;99.90;;;;;;5061697;28;20448;-64
2022/01/28 06:09:55;;;;;;;18.70;10.63;;;3.10;99.90;;;;;;5064157;28;20618;-65
2022/01/28 06:12:22;;;;;;;14.87;10.50;;;3.00;99.90;;;;;;5065683;28;20459;-64
2022/01/28 06:14:49;;;;;;;17.53;10.47;;;3.10;99.90;;;;;;5063776;28;21009;-65
2022/01/28 06:17:16;;;;;;;15.03;9.67;;;3.00;99.90;;;;;;5058208;28;20534;-65
2022/01/28 06:19:43;;;;;;;17.70;9.17;;;3.00;99.90;;;;;;5055878;28;20800;-64
2022/01/28 06:22:09;;;;;;;14.43;10.67;;;3.00;99.90;;;;;;5064159;28;20818;-66
2022/01/28 06:24:38;;;;;;;17.90;9.60;;;3.00;99.90;;;;;;5066198;28;20493;-65
2022/01/28 06:27:05;;;;;;;16.13;10.40;;;3.00;99.90;;;;;;5068390;28;20439;-65
2022/01/28 06:29:32;;;;;;;12.90;9.60;;;3.10;99.90;;;;;;5067263;28;20475;-65
2022/01/28 06:31:59;;;;;;;18.10;10.57;;;3.10;99.90;;;;;;5068187;28;20472;-65
2022/01/28 06:34:27;;;;;;;15.60;10.30;;;3.00;99.90;;;;;;5068580;28;20450;-65
2022/01/28 06:36:53;;;;;;;14.37;9.50;;;3.10;99.90;;;;;;5068093;28;21042;-64
2022/01/28 06:39:20;;;;;;;18.47;10.53;;;3.20;99.90;;;;;;5068306;28;20442;-68
2022/01/28 06:41:48;;;;;;;18.37;10.10;;;3.30;99.90;;;;;;5068361;28;20474;-64
2022/01/28 06:44:15;;;;;;;15.83;10.10;;;3.30;99.90;;;;;;5068805;28;20528;-65
2022/01/28 06:46:42;;;;;;;14.90;10.53;;;3.30;99.90;;;;;;5056371;28;21213;-64
2022/01/28 06:49:09;;;;;;;18.60;11.20;;;3.20;99.90;;;;;;5048223;28;20456;-65
2022/01/28 06:51:37;;;;;;;17.23;11.20;;;3.20;99.90;;;;;;5047160;28;20821;-66
2022/01/28 06:54:04;;;;;;;18.43;11.30;;;3.20;99.90;;;;;;5048979;28;20452;-64
2022/01/28 06:56:31;;;;;;;16.30;10.23;;;3.20;99.90;;;;;;5048908;28;20524;-65
2022/01/28 06:58:59;;;;;;;18.00;10.93;;;3.20;99.90;;;;;;5049289;28;20441;-65
2022/01/28 07:01:26;;;;;;;18.73;12.20;;;3.10;99.90;;;;;;5048465;28;20539;-65
2022/01/28 07:03:53;;;;;;;19.40;10.40;;;3.10;99.90;;;;;;5048367;28;20486;-65
2022/01/28 07:06:22;;;;;;;17.37;11.93;;;3.10;99.90;;;;;;5051311;28;20464;-65
2022/01/28 07:08:49;;;;;;;15.27;11.30;;;3.20;99.90;;;;;;5052224;28;20440;-62
2022/01/28 07:11:17;;;;;;;18.80;11.83;;;3.20;99.90;;;;;;5052035;28;20875;-65
2022/01/28 07:13:44;;;;;;;18.40;10.90;;;3.20;99.90;;;;;;5051971;28;20468;-67
2022/01/28 07:16:12;;;;;;;21.57;11.30;;;3.20;99.90;;;;;;5052069;28;20480;-64
2022/01/28 07:18:39;;;;;;;17.47;10.67;;;3.10;99.90;;;;;;5052255;28;20843;-64
2022/01/28 07:21:06;;;;;;;18.90;11.20;;;3.20;99.90;;;;;;5051702;28;20448;-65
2022/01/28 07:23:33;;;;;;;20.30;10.77;;;3.20;99.90;;;;;;5051867;28;20563;-64
2022/01/28 07:26:00;;;;;;;20.13;11.63;;;3.10;99.90;;;;;;5052103;28;20542;-66
2022/01/28 07:28:27;;;;;;;17.13;11.60;;;3.10;99.90;;;;;;5051705;28;20930;-65
2022/01/28 07:30:53;;;;;;;19.40;12.50;;;3.20;99.90;;;;;;5051594;28;20883;-67
2022/01/28 07:33:22;;;;;;;17.70;10.67;;;3.20;99.90;;;;;;5051651;28;20534;-67
2022/01/28 07:35:49;;;;;;;12.17;9.30;;;3.20;99.90;;;;;;5051858;28;20804;-66
2022/01/28 07:38:15;;;;;;;16.40;10.33;;;3.20;99.90;;;;;;5051601;28;20523;-65
2022/01/28 07:40:42;;;;;;;21.10;10.57;;;3.30;99.90;;;;;;5051103;28;20866;-65
2022/01/28 07:43:09;;;;;;;17.87;11.73;;;3.30;99.90;;;;;;5051610;28;20885;-64
2022/01/28 07:45:37;;;;;;;14.73;9.97;;;3.40;99.90;;;;;;5051526;28;20454;-67
2022/01/28 07:48:05;;;;;;;15.07;10.57;;;3.50;99.90;;;;;;5051451;28;20798;-65
2022/01/28 07:50:34;;;;;;;14.67;9.90;;;3.60;99.90;;;;;;5051393;28;20455;-64
2022/01/28 07:53:01;;;;;;;15.10;10.80;;;3.70;99.90;;;;;;5051303;28;20993;-64
2022/01/28 07:55:28;;;;;;;16.50;9.40;;;3.70;99.90;;;;;;5051550;28;20456;-64
2022/01/28 07:57:54;;;;;;;13.17;9.90;;;3.80;99.90;;;;;;5051320;28;20588;-64
2022/01/28 08:00:26;;;;;;;15.57;10.03;;;3.90;99.90;;;;;;5050952;28;20978;-65
2022/01/28 08:02:53;;;;;;;13.23;9.03;;;3.90;99.90;;;;;;5051293;28;20555;-66
2022/01/28 08:05:20;;;;;;;14.33;9.60;;;4.00;99.90;;;;;;5051259;28;20448;-65
2022/01/28 08:07:49;;;;;;;18.43;9.53;;;4.00;99.90;;;;;;5051249;28;20472;-65
2022/01/28 08:10:16;;;;;;;15.50;11.13;;;4.10;99.90;;;;;;5050946;28;20551;-66
2022/01/28 08:12:47;;;;;;;17.77;9.97;;;4.10;99.90;;;;;;5051057;28;20476;-66
2022/01/28 08:15:14;;;;;;;14.73;10.57;;;4.10;99.90;;;;;;5050997;28;21021;-65
2022/01/28 08:17:41;;;;;;;14.83;8.83;;;4.10;99.90;;;;;;5050575;28;20480;-65
2022/01/28 08:20:09;;;;;;;13.80;9.57;;;4.10;99.90;;;;;;5050825;28;20448;-65
2022/01/28 08:22:44;;;;;;;12.80;8.83;;;4.20;99.90;;;;;;5050579;28;20461;-65
2022/01/28 08:25:13;;;;;;;15.20;8.80;;;4.20;99.90;;;;;;5050784;28;20447;-65
2022/01/28 08:27:42;;;;;;;16.83;9.40;;;4.20;99.90;;;;;;5053663;28;20994;-64
2022/01/28 08:30:10;;;;;;;11.27;7.80;;;4.30;99.90;;;;;;5058481;28;20455;-65
2022/01/28 08:32:37;;;;;;;12.60;7.93;;;4.40;99.90;;;;;;5059001;28;20548;-64
2022/01/28 08:35:05;;;;;;;11.83;8.03;;;4.50;99.90;;;;;;5059164;28;20476;-62
2022/01/28 08:37:32;;;;;;;14.20;8.47;;;4.60;99.90;;;;;;5058748;28;20563;-63
2022/01/28 08:39:59;;;;;;;11.47;8.03;;;4.70;99.90;;;;;;5057761;28;20826;-62
2022/01/28 08:42:28;;;;;;;9.37;7.13;;;4.70;99.90;;;;;;5057603;28;20460;-63
2022/01/28 08:44:55;;;;;;;14.10;8.57;;;4.70;99.90;;;;;;5056342;28;20947;-63
2022/01/28 08:47:22;;;;;;;12.47;7.47;;;4.80;99.90;;;;;;5057470;28;20539;-63
2022/01/28 08:49:49;;;;;;;15.33;7.93;;;4.80;99.90;;;;;;5056983;28;20476;-63
2022/01/28 08:52:16;;;;;;;13.93;7.83;;;4.80;99.90;;;;;;5057714;28;20480;-65
2022/01/28 08:54:43;;;;;;;17.40;9.10;;;4.80;99.90;;;;;;5057765;28;20480;-64
2022/01/28 08:57:10;;;;;;;12.90;7.20;;;4.80;99.90;;;;;;5057284;28;20540;-65
2022/01/28 08:59:40;;;;;;;10.77;8.07;;;4.80;99.90;;;;;;5056894;28;20453;-65
2022/01/28 09:02:07;;;;;;;11.97;7.77;;;4.80;99.90;;;;;;5057869;28;20457;-65
2022/01/28 09:04:34;;;;;;;7.97;6.10;;;4.90;99.90;;;;;;5057620;28;20930;-67
2022/01/28 09:07:01;;;;;;;9.73;6.03;;;5.00;99.90;;;;;;5057293;28;20480;-65
2022/01/28 09:09:29;;;;;;;8.70;6.00;;;5.10;99.90;;;;;;5057029;28;20480;-66
2022/01/28 09:12:07;;;;;;;12.30;6.70;;;5.20;99.90;;;;;;5057906;28;20455;-64
2022/01/28 09:14:34;;;;;;;11.17;6.50;;;5.20;99.90;;;;;;5058771;28;20441;-65
2022/01/28 09:17:03;;;;;;;10.10;6.27;;;5.30;99.90;;;;;;5058495;28;20512;-66
2022/01/28 09:19:30;;;;;;;8.87;6.23;;;5.20;99.90;;;;;;5059173;28;20467;-64
2022/01/28 09:21:56;;;;;;;9.23;6.40;;;5.20;99.90;;;;;;5058283;28;20441;-65
2022/01/28 09:24:23;;;;;;;11.33;6.67;;;5.30;99.90;;;;;;5059135;28;20938;-68
2022/01/28 09:26:51;;;;;;;9.03;5.13;;;5.40;99.90;;;;;;5058809;28;20827;-65
2022/01/28 09:29:18;;;;;;;7.80;5.13;;;5.60;99.90;;;;;;5057061;28;20456;-64
2022/01/28 09:31:45;;;;;;;14.77;4.67;;;5.80;99.90;;;;;;5056630;28;20531;-66
2022/01/28 09:34:13;;;;;;;8.70;6.17;;;5.80;99.90;;;;;;5056861;28;20483;-65
2022/01/28 09:36:40;;;;;;;11.70;6.97;;;5.80;99.90;;;;;;5057255;28;20525;-65
2022/01/28 09:39:08;;;;;;;11.10;7.67;;;5.80;99.90;;;;;;5056961;28;20925;-64
2022/01/28 09:41:36;;;;;;;8.57;5.80;;;5.90;99.90;;;;;;5056485;28;20449;-66
2022/01/28 09:44:03;;;;;;;13.77;7.40;;;5.90;99.90;;;;;;5056923;28;20469;-66
2022/01/28 09:46:31;;;;;;;10.40;6.40;;;5.80;99.90;;;;;;5056075;28;20448;-66
2022/01/28 09:48:58;;;;;;;14.40;7.13;;;5.80;99.90;;;;;;5056333;28;20472;-67
2022/01/28 09:51:26;;;;;;;12.67;7.30;;;5.90;99.90;;;;;;5057525;28;20451;-65
2022/01/28 09:53:54;;;;;;;24.87;12.27;;;6.00;99.90;;;;;;5056650;28;20532;-64
2022/01/28 09:56:20;;;;;;;7.83;3.97;;;6.10;99.90;;;;;;5055769;28;20460;-66
2022/01/28 09:58:47;;;;;;;11.53;6.53;;;6.20;99.90;;;;;;5057582;28;21256;-65
2022/01/28 10:01:14;;;;;;;9.67;6.20;;;6.20;99.90;;;;;;5055787;28;20453;-65
2022/01/28 10:03:41;;;;;;;19.83;10.10;;;6.20;99.90;;;;;;5056689;28;20457;-65
2022/01/28 10:06:08;;;;;;;15.30;8.73;;;6.30;99.90;;;;;;5056244;28;20480;-65
2022/01/28 10:08:37;;;;;;;9.33;5.57;;;6.30;99.90;;;;;;5056622;28;20466;-65
2022/01/28 10:11:08;;;;;;;11.87;7.33;;;6.30;99.90;;;;;;5055971;28;20457;-65
2022/01/28 10:13:41;;;;;;;13.93;6.07;;;6.30;99.90;;;;;;5055315;28;21020;-64
2022/01/28 10:16:11;;;;;;;8.30;4.33;;;6.30;99.90;;;;;;5055271;28;20456;-64
2022/01/28 10:18:47;;;;;;;8.40;4.27;;;6.20;99.90;;;;;;5055700;28;20989;-64
2022/01/28 10:21:25;;;;;;;7.20;4.07;;;6.10;99.90;;;;;;5055524;28;20870;-64
2022/01/28 10:24:12;;;;;;;17.60;9.60;;;6.10;99.90;;;;;;5055926;28;20492;-64
2022/01/28 10:26:42;;;;;;;11.23;4.80;;;6.20;99.90;;;;;;5054480;28;20428;-65
2022/01/28 10:29:11;;;;;;;11.97;4.87;;;6.30;99.90;;;;;;5054262;28;20850;-65
2022/01/28 10:31:48;;;;;;;9.10;3.83;;;6.40;99.90;;;;;;5054099;28;20444;-64
2022/01/28 10:34:30;;;;;;;6.77;5.00;;;6.30;99.90;;;;;;5054436;28;20444;-63
2022/01/28 10:37:15;;;;;;;10.23;4.00;;;6.30;99.90;;;;;;5054796;28;20513;-63
2022/01/28 10:39:47;;;;;;;10.10;3.93;;;6.40;99.90;;;;;;5055660;28;20455;-64
2022/01/28 10:42:16;;;;;;;7.33;4.23;;;6.40;99.90;;;;;;5058040;28;20510;-64
2022/01/28 10:44:58;;;;;;;4.80;3.63;;;6.30;99.90;;;;;;5057876;28;20511;-65
2022/01/28 10:47:33;;;;;;;6.93;3.90;;;6.40;99.90;;;;;;5058789;28;20444;-64
2022/01/28 10:50:00;;;;;;;8.80;4.17;;;6.90;99.90;;;;;;5057399;28;20973;-63
2022/01/28 10:52:34;;;;;;;7.13;2.70;;;7.30;99.90;;;;;;5056755;28;20464;-63
2022/01/28 10:55:03;;;;;;;5.40;3.03;;;7.50;99.90;;;;;;5057447;28;20491;-65
2022/01/28 10:57:31;;;;;;;7.17;3.10;;;7.50;99.90;;;;;;5057632;28;21188;-65
2022/01/28 10:59:59;;;;;;;9.50;3.27;;;7.60;99.90;;;;;;5056544;28;20925;-64
2022/01/28 11:02:26;;;;;;;8.30;3.40;;;7.70;99.90;;;;;;5057679;28;20478;-64
2022/01/28 11:04:56;;;;;;;7.10;3.13;;;7.80;99.90;;;;;;5056245;28;21110;-63
2022/01/28 11:07:24;;;;;;;5.63;2.90;;;7.80;99.90;;;;;;5055621;28;20851;-63
2022/01/28 11:09:50;;;;;;;7.93;3.33;;;7.40;99.90;;;;;;5056362;28;20437;-64
2022/01/28 11:12:19;;;;;;;9.50;3.37;;;7.20;99.90;;;;;;5056101;28;21029;-63
2022/01/28 11:14:46;;;;;;;9.33;3.27;;;7.10;99.90;;;;;;5055827;28;20543;-65
2022/01/28 11:17:16;;;;;;;8.63;2.57;;;7.10;99.90;;;;;;5055757;28;20696;-64
2022/01/28 11:19:45;;;;;;;6.70;3.60;;;7.10;99.90;;;;;;5055366;28;20440;-63
2022/01/28 11:22:25;;;;;;;7.40;3.47;;;6.90;99.90;;;;;;5055566;28;20464;-64
2022/01/28 11:25:21;;;;;;;5.60;3.00;;;7.00;99.90;;;;;;5056054;28;20730;-64
2022/01/28 11:27:50;;;;;;;8.57;3.60;;;7.00;99.90;;;;;;5054883;28;20436;-66
2022/01/28 11:30:25;;;;;;;5.70;3.43;;;7.00;99.90;;;;;;5054771;28;20551;-64
2022/01/28 11:33:00;;;;;;;5.80;4.13;;;6.80;99.90;;;;;;5055061;28;20472;-65
2022/01/28 11:35:29;;;;;;;5.20;3.50;;;6.80;99.90;;;;;;5055611;28;20447;-63
2022/01/28 11:38:02;;;;;;;7.67;3.20;;;6.90;99.90;;;;;;5055307;28;20476;-63
2022/01/28 11:40:43;;;;;;;5.00;3.93;;;7.00;99.90;;;;;;5054995;28;20491;-63
2022/01/28 11:43:31;;;;;;;6.70;3.83;;;7.20;99.90;;;;;;5054708;28;20460;-66
2022/01/28 11:46:09;;;;;;;6.87;4.00;;;7.10;99.90;;;;;;5054767;28;20597;-63
2022/01/28 11:48:55;;;;;;;7.27;4.00;;;7.00;99.90;;;;;;5055161;28;20990;-64
2022/01/28 11:51:23;;;;;;;5.90;3.73;;;7.10;99.90;;;;;;5053584;28;20990;-66
2022/01/28 11:53:55;;;;;;;8.10;4.80;;;7.10;99.90;;;;;;5054516;28;20552;-63
2022/01/28 11:56:22;;;;;;;8.60;3.23;;;6.80;99.90;;;;;;5054972;28;20528;-64
2022/01/28 11:58:55;;;;;;;7.47;5.17;;;6.70;99.90;;;;;;5055206;28;20989;-64
2022/01/28 12:01:26;;;;;;;9.20;5.43;;;6.60;99.90;;;;;;5055227;28;20452;-64
2022/01/28 12:04:34;;;;;;;13.20;5.03;;;6.70;99.90;;;;;;5055422;28;20571;-65
2022/01/28 12:07:05;;;;;;;5.67;3.90;;;6.80;99.90;;;;;;5055067;28;20494;-67
2022/01/28 12:09:34;;;;;;;11.20;4.40;;;6.90;99.90;;;;;;5055026;28;20451;-65
2022/01/28 12:12:02;;;;;;;7.27;3.93;;;7.00;99.90;;;;;;5054477;28;20481;-64
2022/01/28 12:14:57;;;;;;;9.93;4.80;;;7.00;99.90;;;;;;5055991;28;20535;-64
2022/01/28 12:17:40;;;;;;;9.80;4.00;;;6.90;99.90;;;;;;5050861;28;20480;-65
2022/01/28 12:20:11;;;;;;;8.73;4.63;;;6.90;99.90;;;;;;5055154;28;20438;-64
2022/01/28 12:23:02;;;;;;;6.73;4.17;;;6.90;99.90;;;;;;5058434;28;20543;-65
2022/01/28 12:25:51;;;;;;;9.97;4.83;;;7.20;99.90;;;;;;5073918;28;20440;-64
2022/01/28 12:28:20;;;;;;;8.90;4.47;;;7.20;99.90;;;;;;5074947;28;20955;-64
2022/01/28 12:30:50;;;;;;;9.23;5.00;;;7.40;99.90;;;;;;5075019;28;20848;-64
2022/01/28 12:33:23;;;;;;;9.53;5.17;;;7.40;99.90;;;;;;5076694;28;20521;-66
2022/01/28 12:35:52;;;;;;;8.03;4.80;;;7.30;99.90;;;;;;5079955;28;20959;-65
2022/01/28 12:38:22;;;;;;;10.20;6.27;;;7.20;99.90;;;;;;5082629;28;20541;-65
2022/01/28 12:40:52;;;;;;;6.40;4.00;;;7.00;99.90;;;;;;5079576;28;20785;-66
2022/01/28 12:43:20;;;;;;;10.47;5.43;;;6.90;99.90;;;;;;5078538;28;20491;-65
2022/01/28 12:45:58;;;;;;;8.73;4.50;;;6.90;99.90;;;;;;5078282;28;20534;-66
2022/01/28 12:48:25;;;;;;;7.93;4.90;;;7.00;99.90;;;;;;5075163;28;20910;-66
2022/01/28 12:50:53;;;;;;;8.60;4.70;;;7.10;99.90;;;;;;5075684;28;20455;-65
2022/01/28 12:53:36;;;;;;;8.90;5.90;;;7.10;99.90;;;;;;5075533;28;20459;-65
2022/01/28 12:56:05;;;;;;;8.10;4.77;;;6.90;99.90;;;;;;5076094;28;20435;-67
2022/01/28 12:58:36;;;;;;;8.37;5.43;;;6.70;99.90;;;;;;5075266;28;20479;-66
2022/01/28 13:01:07;;;;;;;10.67;6.00;;;6.70;99.90;;;;;;5070117;28;21209;-67
2022/01/28 13:03:38;;;;;;;11.30;6.90;;;6.60;99.90;;;;;;5072408;28;20479;-65
2022/01/28 13:06:39;;;;;;;9.33;5.73;;;6.70;99.90;;;;;;5067399;28;20444;-66
2022/01/28 13:09:13;;;;;;;10.50;6.27;;;6.80;99.90;;;;;;5074403;28;20439;-66
2022/01/28 13:11:44;;;;;;;8.97;5.13;;;7.00;99.90;;;;;;5077072;28;20467;-66
2022/01/28 13:14:11;;;;;;;8.47;6.20;;;7.00;99.90;;;;;;5078207;28;20448;-66
2022/01/28 13:16:42;;;;;;;8.83;5.83;;;6.90;99.90;;;;;;5074941;28;20439;-66
2022/01/28 13:19:12;;;;;;;14.03;8.33;;;6.90;99.90;;;;;;5073998;28;20533;-65
2022/01/28 13:21:39;;;;;;;12.53;7.90;;;6.90;99.90;;;;;;5076385;28;20446;-65
2022/01/28 13:24:17;;;;;;;12.97;8.60;;;6.80;99.90;;;;;;5074873;28;20446;-65
2022/01/28 13:26:55;;;;;;;10.00;6.50;;;6.70;99.90;;;;;;5076365;28;20440;-65
2022/01/28 13:29:34;;;;;;;10.53;7.03;;;6.60;99.90;;;;;;5076975;28;20432;-66
2022/01/28 13:32:04;;;;;;;10.60;7.70;;;6.40;99.90;;;;;;5078576;28;20882;-66
2022/01/28 13:34:46;;;;;;;11.07;6.67;;;6.40;99.90;;;;;;5077708;28;20531;-66
2022/01/28 13:37:14;;;;;;;12.33;6.70;;;6.40;99.90;;;;;;5072013;28;20427;-65
2022/01/28 13:39:43;;;;;;;12.03;6.57;;;6.40;99.90;;;;;;5070011;28;20490;-66
2022/01/28 13:42:12;;;;;;;9.50;8.13;;;6.30;99.90;;;;;;5070304;28;20462;-64
2022/01/28 13:44:42;;;;;;;8.60;6.10;;;6.30;99.90;;;;;;5071296;28;20439;-64
2022/01/28 13:47:12;;;;;;;11.33;6.40;;;6.30;99.90;;;;;;5071272;28;21171;-65
2022/01/28 13:49:40;;;;;;;11.20;8.40;;;6.50;99.90;;;;;;5070589;28;20842;-65
2022/01/28 13:52:17;;;;;;;8.10;6.33;;;6.60;99.90;;;;;;5068925;28;20533;-65
2022/01/28 13:54:45;;;;;;;8.87;6.40;;;6.60;99.90;;;;;;5070842;28;20439;-64
2022/01/28 13:57:12;;;;;;;14.83;7.47;;;6.60;99.90;;;;;;5069271;28;20441;-65
2022/01/28 13:59:42;;;;;;;10.70;6.93;;;6.50;99.90;;;;;;5068335;28;21015;-65
2022/01/28 14:02:15;;;;;;;9.50;7.20;;;6.40;99.90;;;;;;5070045;28;20466;-65
2022/01/28 14:04:44;;;;;;;12.73;7.70;;;6.30;99.90;;;;;;5070325;28;20543;-65